sensor_id;sensor_type;location;lat;lon;timestamp;temperature;humidity
32640;DHT22;19049;52.524;11.468;2023-11-21T00:00:16;10.70;99.90
32640;DHT22;19049;52.524;11.468;2023-11-21T00:02:43;10.70;99.90
32640;DHT22;19049;52.524;11.468;2023-11-21T00:05:10;10.70;99.90
32640;DHT22;19049;52.524;11.468;2023-11-21T00:07:37;10.70;99.90
32640;DHT22;19049;52.524;11.468;2023-11-21T00:10:03;10.70;99.90
32640;DHT22;19049;52.524;11.468;2023-11-21T00:12:33;10.70;99.90
32640;DHT22;19049;52.524;11.468;2023-11-21T00:14:59;10.70;99.90
32640;DHT22;19049;52.524;11.468;2023-11-21T00:17:25;10.70;99.90
32640;DHT22;19049;52.524;11.468;2023-11-21T00:19:51;10.70;99.90
32640;DHT22;19049;52.524;11.468;2023-11-21T00:22:17;10.60;99.90
32640;DHT22;19049;52.524;11.468;2023-11-21T00:24:43;10.70;99.90
32640;DHT22;19049;52.524;11.468;2023-11-21T00:27:09;10.70;99.90
32640;DHT22;19049;52.524;11.468;2023-11-21T00:29:35;10.60;99.90
32640;DHT22;19049;52.524;11.468;2023-11-21T00:32:00;10.60;99.90
32640;DHT22;19049;52.524;11.468;2023-11-21T00:34:27;10.60;99.90
32640;DHT22;19049;52.524;11.468;2023-11-21T00:36:52;10.70;99.90
32640;DHT22;19049;52.524;11.468;2023-11-21T00:39:18;10.60;99.90
32640;DHT22;19049;52.524;11.468;2023-11-21T00:41:44;10.70;99.90
32640;DHT22;19049;52.524;11.468;2023-11-21T00:44:10;10.70;99.90
32640;DHT22;19049;52.524;11.468;2023-11-21T00:46:36;10.70;99.90
32640;DHT22;19049;52.524;11.468;2023-11-21T00:49:02;10.70;99.90
32640;DHT22;19049;52.524;11.468;2023-11-21T00:51:30;10.70;99.90
32640;DHT22;19049;52.524;11.468;2023-11-21T00:53:55;10.70;99.90
32640;DHT22;19049;52.524;11.468;2023-11-21T00:56:21;10.70;99.90
32640;DHT22;19049;52.524;11.468;2023-11-21T00:58:47;10.70;99.90
32640;DHT22;19049;52.524;11.468;2023-11-21T01:01:16;10.70;99.90
32640;DHT22;19049;52.524;11.468;2023-11-21T01:03:41;10.70;99.90
32640;DHT22;19049;52.524;11.468;2023-11-21T01:06:07;10.70;99.90
32640;DHT22;19049;52.524;11.468;2023-11-21T01:08:34;10.70;99.90
32640;DHT22;19049;52.524;11.468;2023-11-21T01:11:01;10.70;99.90
32640;DHT22;19049;52.524;11.468;2023-11-21T01:13:27;10.70;99.90
32640;DHT22;19049;52.524;11.468;2023-11-21T01:15:54;10.70;99.90
32640;DHT22;19049;52.524;11.468;2023-11-21T01:18:19;10.70;99.90
32640;DHT22;19049;52.524;11.468;2023-11-21T01:20:45;10.70;99.90
32640;DHT22;19049;52.524;11.468;2023-11-21T01:23:13;10.70;99.90
32640;DHT22;19049;52.524;11.468;2023-11-21T01:25:38;10.70;99.90
32640;DHT22;19049;52.524;11.468;2023-11-21T01:28:04;10.70;99.90
32640;DHT22;19049;52.524;11.468;2023-11-21T01:30:30;10.70;99.90
32640;DHT22;19049;52.524;11.468;2023-11-21T01:32:56;10.70;99.90
32640;DHT22;19049;52.524;11.468;2023-11-21T01:35:22;10.70;99.90
32640;DHT22;19049;52.524;11.468;2023-11-21T01:37:48;10.70;99.90
32640;DHT22;19049;52.524;11.468;2023-11-21T01:40:14;10.70;99.90
32640;DHT22;19049;52.524;11.468;2023-11-21T01:42:40;10.70;99.90
32640;DHT22;19049;52.524;11.468;2023-11-21T01:45:06;10.70;99.90
32640;DHT22;19049;52.524;11.468;2023-11-21T01:47:34;10.70;99.90
32640;DHT22;19049;52.524;11.468;2023-11-21T01:50:01;10.70;99.90
32640;DHT22;19049;52.524;11.468;2023-11-21T01:52:27;10.70;99.90
32640;DHT22;19049;52.524;11.468;2023-11-21T01:54:53;10.70;99.90
32640;DHT22;19049;52.524;11.468;2023-11-21T01:57:20;10.80;99.90
32640;DHT22;19049;52.524;11.468;2023-11-21T01:59:46;10.80;99.90
32640;DHT22;19049;52.524;11.468;2023-11-21T02:02:13;10.80;99.90
32640;DHT22;19049;52.524;11.468;2023-11-21T02:04:39;10.80;99.90
32640;DHT22;19049;52.524;11.468;2023-11-21T02:07:05;10.80;99.90
32640;DHT22;19049;52.524;11.468;2023-11-21T02:09:33;10.80;99.90
32640;DHT22;19049;52.524;11.468;2023-11-21T02:12:00;10.80;99.90
32640;DHT22;19049;52.524;11.468;2023-11-21T02:14:26;10.80;99.90
32640;DHT22;19049;52.524;11.468;2023-11-21T02:16:54;10.80;99.90
32640;DHT22;19049;52.524;11.468;2023-11-21T02:19:22;10.80;99.90
32640;DHT22;19049;52.524;11.468;2023-11-21T02:21:56;10.80;99.90
32640;DHT22;19049;52.524;11.468;2023-11-21T02:24:28;10.80;99.90
32640;DHT22;19049;52.524;11.468;2023-11-21T02:26:54;10.80;99.90
32640;DHT22;19049;52.524;11.468;2023-11-21T02:29:20;10.80;99.90
32640;DHT22;19049;52.524;11.468;2023-11-21T02:31:54;10.70;99.90
32640;DHT22;19049;52.524;11.468;2023-11-21T02:34:21;10.70;99.90
32640;DHT22;19049;52.524;11.468;2023-11-21T02:36:47;10.60;99.90
32640;DHT22;19049;52.524;11.468;2023-11-21T02:39:15;10.60;99.90
32640;DHT22;19049;52.524;11.468;2023-11-21T02:41:42;10.50;99.90
32640;DHT22;19049;52.524;11.468;2023-11-21T02:44:08;10.50;99.90
32640;DHT22;19049;52.524;11.468;2023-11-21T02:46:34;10.40;99.90
32640;DHT22;19049;52.524;11.468;2023-11-21T02:49:04;10.40;99.90
32640;DHT22;19049;52.524;11.468;2023-11-21T02:51:32;10.40;99.90
32640;DHT22;19049;52.524;11.468;2023-11-21T02:53:57;10.30;99.90
32640;DHT22;19049;52.524;11.468;2023-11-21T02:56:27;10.30;99.90
32640;DHT22;19049;52.524;11.468;2023-11-21T02:58:56;10.20;99.90
32640;DHT22;19049;52.524;11.468;2023-11-21T03:01:22;10.20;99.90
32640;DHT22;19049;52.524;11.468;2023-11-21T03:03:49;10.10;99.90
32640;DHT22;19049;52.524;11.468;2023-11-21T03:06:19;10.10;99.90
32640;DHT22;19049;52.524;11.468;2023-11-21T03:08:45;10.00;99.90
32640;DHT22;19049;52.524;11.468;2023-11-21T03:11:11;9.90;99.90
32640;DHT22;19049;52.524;11.468;2023-11-21T03:13:39;9.90;99.90
32640;DHT22;19049;52.524;11.468;2023-11-21T03:16:05;9.80;99.90
32640;DHT22;19049;52.524;11.468;2023-11-21T03:18:31;9.80;99.90
32640;DHT22;19049;52.524;11.468;2023-11-21T03:20:57;9.80;99.90
32640;DHT22;19049;52.524;11.468;2023-11-21T03:23:22;9.70;99.90
32640;DHT22;19049;52.524;11.468;2023-11-21T03:25:48;9.70;99.90
32640;DHT22;19049;52.524;11.468;2023-11-21T03:28:14;9.60;99.90
32640;DHT22;19049;52.524;11.468;2023-11-21T03:30:39;9.60;99.90
32640;DHT22;19049;52.524;11.468;2023-11-21T03:33:05;9.50;99.90
32640;DHT22;19049;52.524;11.468;2023-11-21T03:35:31;9.50;99.90
32640;DHT22;19049;52.524;11.468;2023-11-21T03:37:57;9.50;99.90
32640;DHT22;19049;52.524;11.468;2023-11-21T03:40:22;9.40;99.90
32640;DHT22;19049;52.524;11.468;2023-11-21T03:42:48;9.40;99.90
32640;DHT22;19049;52.524;11.468;2023-11-21T03:45:14;9.30;99.90
32640;DHT22;19049;52.524;11.468;2023-11-21T03:47:41;9.30;99.90
32640;DHT22;19049;52.524;11.468;2023-11-21T03:50:07;9.30;99.90
32640;DHT22;19049;52.524;11.468;2023-11-21T03:52:34;9.30;99.90
32640;DHT22;19049;52.524;11.468;2023-11-21T03:55:01;9.20;99.90
32640;DHT22;19049;52.524;11.468;2023-11-21T03:57:26;9.20;99.90
32640;DHT22;19049;52.524;11.468;2023-11-21T03:59:53;9.20;99.90
32640;DHT22;19049;52.524;11.468;2023-11-21T04:02:19;9.20;99.90
32640;DHT22;19049;52.524;11.468;2023-11-21T04:04:45;9.10;99.90
32640;DHT22;19049;52.524;11.468;2023-11-21T04:07:11;9.10;99.90
32640;DHT22;19049;52.524;11.468;2023-11-21T04:09:39;9.10;99.90
32640;DHT22;19049;52.524;11.468;2023-11-21T04:12:05;9.10;99.90
32640;DHT22;19049;52.524;11.468;2023-11-21T04:14:31;9.10;99.90
32640;DHT22;19049;52.524;11.468;2023-11-21T04:16:57;9.00;99.90
32640;DHT22;19049;52.524;11.468;2023-11-21T04:19:23;9.00;99.90
32640;DHT22;19049;52.524;11.468;2023-11-21T04:21:49;9.00;99.90
32640;DHT22;19049;52.524;11.468;2023-11-21T04:24:15;9.00;99.90
32640;DHT22;19049;52.524;11.468;2023-11-21T04:26:41;9.00;99.90
32640;DHT22;19049;52.524;11.468;2023-11-21T04:29:07;8.90;99.90
32640;DHT22;19049;52.524;11.468;2023-11-21T04:31:32;8.90;99.90
32640;DHT22;19049;52.524;11.468;2023-11-21T04:33:58;8.90;99.90
32640;DHT22;19049;52.524;11.468;2023-11-21T04:36:24;8.90;99.90
32640;DHT22;19049;52.524;11.468;2023-11-21T04:38:49;8.90;99.90
32640;DHT22;19049;52.524;11.468;2023-11-21T04:41:15;8.90;99.90
32640;DHT22;19049;52.524;11.468;2023-11-21T04:43:41;8.80;99.90
32640;DHT22;19049;52.524;11.468;2023-11-21T04:46:07;8.80;99.90
32640;DHT22;19049;52.524;11.468;2023-11-21T04:48:33;8.80;99.90
32640;DHT22;19049;52.524;11.468;2023-11-21T04:50:59;8.80;99.90
32640;DHT22;19049;52.524;11.468;2023-11-21T04:53:24;8.80;99.90
32640;DHT22;19049;52.524;11.468;2023-11-21T04:55:50;8.80;99.90
32640;DHT22;19049;52.524;11.468;2023-11-21T04:58:15;8.80;99.90
32640;DHT22;19049;52.524;11.468;2023-11-21T05:00:41;8.70;99.90
32640;DHT22;19049;52.524;11.468;2023-11-21T05:03:07;8.80;99.90
32640;DHT22;19049;52.524;11.468;2023-11-21T05:05:33;8.70;99.90
32640;DHT22;19049;52.524;11.468;2023-11-21T05:08:02;8.80;99.90
32640;DHT22;19049;52.524;11.468;2023-11-21T05:10:28;8.70;99.90
32640;DHT22;19049;52.524;11.468;2023-11-21T05:12:55;8.80;99.90
32640;DHT22;19049;52.524;11.468;2023-11-21T05:15:21;8.70;99.90
32640;DHT22;19049;52.524;11.468;2023-11-21T05:17:47;8.70;99.90
32640;DHT22;19049;52.524;11.468;2023-11-21T05:20:17;8.70;99.90
32640;DHT22;19049;52.524;11.468;2023-11-21T05:22:46;8.70;99.90
32640;DHT22;19049;52.524;11.468;2023-11-21T05:25:13;8.70;99.90
32640;DHT22;19049;52.524;11.468;2023-11-21T05:27:39;8.70;99.90
32640;DHT22;19049;52.524;11.468;2023-11-21T05:30:06;8.70;99.90
32640;DHT22;19049;52.524;11.468;2023-11-21T05:32:32;8.70;99.90
32640;DHT22;19049;52.524;11.468;2023-11-21T05:34:58;8.70;99.90
32640;DHT22;19049;52.524;11.468;2023-11-21T05:37:24;8.70;99.90
32640;DHT22;19049;52.524;11.468;2023-11-21T05:39:55;8.70;99.90
32640;DHT22;19049;52.524;11.468;2023-11-21T05:42:23;8.60;99.90
32640;DHT22;19049;52.524;11.468;2023-11-21T05:44:49;8.60;99.90
32640;DHT22;19049;52.524;11.468;2023-11-21T05:47:15;8.60;99.90
32640;DHT22;19049;52.524;11.468;2023-11-21T05:49:40;8.60;99.90
32640;DHT22;19049;52.524;11.468;2023-11-21T05:52:06;8.60;99.90
32640;DHT22;19049;52.524;11.468;2023-11-21T05:54:32;8.60;99.90
32640;DHT22;19049;52.524;11.468;2023-11-21T05:56:58;8.60;99.90
32640;DHT22;19049;52.524;11.468;2023-11-21T05:59:24;8.60;99.90
32640;DHT22;19049;52.524;11.468;2023-11-21T06:01:50;8.60;99.90
32640;DHT22;19049;52.524;11.468;2023-11-21T06:04:15;8.60;99.90
32640;DHT22;19049;52.524;11.468;2023-11-21T06:06:41;8.60;99.90
32640;DHT22;19049;52.524;11.468;2023-11-21T06:09:07;8.60;99.90
32640;DHT22;19049;52.524;11.468;2023-11-21T06:11:35;8.60;99.90
32640;DHT22;19049;52.524;11.468;2023-11-21T06:14:00;8.60;99.90
32640;DHT22;19049;52.524;11.468;2023-11-21T06:16:26;8.50;99.90
32640;DHT22;19049;52.524;11.468;2023-11-21T06:18:53;8.50;99.90
32640;DHT22;19049;52.524;11.468;2023-11-21T06:21:18;8.50;99.90
32640;DHT22;19049;52.524;11.468;2023-11-21T06:23:44;8.40;99.90
32640;DHT22;19049;52.524;11.468;2023-11-21T06:26:10;8.40;99.90
32640;DHT22;19049;52.524;11.468;2023-11-21T06:28:36;8.30;99.90
32640;DHT22;19049;52.524;11.468;2023-11-21T06:31:02;8.30;99.90
32640;DHT22;19049;52.524;11.468;2023-11-21T06:33:34;8.30;99.90
32640;DHT22;19049;52.524;11.468;2023-11-21T06:36:00;8.30;99.90
32640;DHT22;19049;52.524;11.468;2023-11-21T06:38:28;8.20;99.90
32640;DHT22;19049;52.524;11.468;2023-11-21T06:40:56;8.20;99.90
32640;DHT22;19049;52.524;11.468;2023-11-21T06:43:23;8.20;99.90
32640;DHT22;19049;52.524;11.468;2023-11-21T06:45:49;8.20;99.90
32640;DHT22;19049;52.524;11.468;2023-11-21T06:48:14;8.20;99.90
32640;DHT22;19049;52.524;11.468;2023-11-21T06:50:40;8.10;99.90
32640;DHT22;19049;52.524;11.468;2023-11-21T06:53:07;8.10;99.90
32640;DHT22;19049;52.524;11.468;2023-11-21T06:55:33;8.10;99.90
32640;DHT22;19049;52.524;11.468;2023-11-21T06:57:59;8.10;99.90
32640;DHT22;19049;52.524;11.468;2023-11-21T07:00:26;8.10;99.90
32640;DHT22;19049;52.524;11.468;2023-11-21T07:02:53;8.00;99.90
32640;DHT22;19049;52.524;11.468;2023-11-21T07:05:20;8.00;99.90
32640;DHT22;19049;52.524;11.468;2023-11-21T07:07:47;8.00;99.90
32640;DHT22;19049;52.524;11.468;2023-11-21T07:10:14;7.90;99.90
32640;DHT22;19049;52.524;11.468;2023-11-21T07:12:40;7.90;99.90
32640;DHT22;19049;52.524;11.468;2023-11-21T07:15:06;7.90;99.90
32640;DHT22;19049;52.524;11.468;2023-11-21T07:17:35;7.80;99.90
32640;DHT22;19049;52.524;11.468;2023-11-21T07:20:04;7.80;99.90
32640;DHT22;19049;52.524;11.468;2023-11-21T07:22:32;7.80;99.90
32640;DHT22;19049;52.524;11.468;2023-11-21T07:24:57;7.70;99.90
32640;DHT22;19049;52.524;11.468;2023-11-21T07:27:23;7.70;99.90
32640;DHT22;19049;52.524;11.468;2023-11-21T07:29:49;7.70;99.90
32640;DHT22;19049;52.524;11.468;2023-11-21T07:32:14;7.60;99.90
32640;DHT22;19049;52.524;11.468;2023-11-21T07:34:40;7.60;99.90
32640;DHT22;19049;52.524;11.468;2023-11-21T07:37:07;7.60;99.90
32640;DHT22;19049;52.524;11.468;2023-11-21T07:39:34;7.60;99.90
32640;DHT22;19049;52.524;11.468;2023-11-21T07:42:01;7.60;99.90
32640;DHT22;19049;52.524;11.468;2023-11-21T07:44:28;7.60;99.90
32640;DHT22;19049;52.524;11.468;2023-11-21T07:46:53;7.50;99.90
32640;DHT22;19049;52.524;11.468;2023-11-21T07:49:23;7.50;99.90
32640;DHT22;19049;52.524;11.468;2023-11-21T07:51:49;7.50;99.90
32640;DHT22;19049;52.524;11.468;2023-11-21T07:54:16;7.50;99.90
32640;DHT22;19049;52.524;11.468;2023-11-21T07:56:41;7.40;99.90
32640;DHT22;19049;52.524;11.468;2023-11-21T07:59:07;7.40;99.90
32640;DHT22;19049;52.524;11.468;2023-11-21T08:01:33;7.40;99.90
32640;DHT22;19049;52.524;11.468;2023-11-21T08:03:59;7.40;99.90
32640;DHT22;19049;52.524;11.468;2023-11-21T08:06:31;7.40;99.90
32640;DHT22;19049;52.524;11.468;2023-11-21T08:08:58;7.40;99.90
32640;DHT22;19049;52.524;11.468;2023-11-21T08:11:24;7.40;99.90
32640;DHT22;19049;52.524;11.468;2023-11-21T08:13:49;7.40;99.90
32640;DHT22;19049;52.524;11.468;2023-11-21T08:16:15;7.40;99.90
32640;DHT22;19049;52.524;11.468;2023-11-21T08:18:42;7.40;99.90
32640;DHT22;19049;52.524;11.468;2023-11-21T08:21:08;7.50;99.90
32640;DHT22;19049;52.524;11.468;2023-11-21T08:23:34;7.50;99.90
32640;DHT22;19049;52.524;11.468;2023-11-21T08:26:00;7.60;99.90
32640;DHT22;19049;52.524;11.468;2023-11-21T08:28:27;7.60;99.90
32640;DHT22;19049;52.524;11.468;2023-11-21T08:30:53;7.70;99.90
32640;DHT22;19049;52.524;11.468;2023-11-21T08:33:19;7.70;99.90
32640;DHT22;19049;52.524;11.468;2023-11-21T08:35:45;7.80;99.90
32640;DHT22;19049;52.524;11.468;2023-11-21T08:38:11;7.80;99.90
32640;DHT22;19049;52.524;11.468;2023-11-21T08:40:38;7.90;99.90
32640;DHT22;19049;52.524;11.468;2023-11-21T08:43:04;8.00;99.90
32640;DHT22;19049;52.524;11.468;2023-11-21T08:45:33;8.10;99.90
32640;DHT22;19049;52.524;11.468;2023-11-21T08:48:02;8.20;99.90
32640;DHT22;19049;52.524;11.468;2023-11-21T08:50:28;8.30;99.90
32640;DHT22;19049;52.524;11.468;2023-11-21T08:52:54;8.40;99.90
32640;DHT22;19049;52.524;11.468;2023-11-21T08:55:20;8.50;99.90
32640;DHT22;19049;52.524;11.468;2023-11-21T08:57:45;8.70;99.90
32640;DHT22;19049;52.524;11.468;2023-11-21T09:00:14;8.80;99.90
32640;DHT22;19049;52.524;11.468;2023-11-21T09:02:42;8.80;99.90
32640;DHT22;19049;52.524;11.468;2023-11-21T09:05:09;9.00;99.90
32640;DHT22;19049;52.524;11.468;2023-11-21T09:07:40;9.10;99.90
32640;DHT22;19049;52.524;11.468;2023-11-21T09:10:09;9.10;99.90
32640;DHT22;19049;52.524;11.468;2023-11-21T09:12:37;9.20;99.90
32640;DHT22;19049;52.524;11.468;2023-11-21T09:15:04;9.30;99.90
32640;DHT22;19049;52.524;11.468;2023-11-21T09:17:31;9.30;99.90
32640;DHT22;19049;52.524;11.468;2023-11-21T09:19:57;9.30;99.90
32640;DHT22;19049;52.524;11.468;2023-11-21T09:22:22;9.30;99.90
32640;DHT22;19049;52.524;11.468;2023-11-21T09:24:50;9.30;99.90
32640;DHT22;19049;52.524;11.468;2023-11-21T09:27:16;9.20;99.90
32640;DHT22;19049;52.524;11.468;2023-11-21T09:29:43;9.20;99.90
32640;DHT22;19049;52.524;11.468;2023-11-21T09:32:08;9.20;99.90
32640;DHT22;19049;52.524;11.468;2023-11-21T09:34:38;9.10;99.90
32640;DHT22;19049;52.524;11.468;2023-11-21T09:37:04;9.10;99.90
32640;DHT22;19049;52.524;11.468;2023-11-21T09:39:31;9.10;99.90
32640;DHT22;19049;52.524;11.468;2023-11-21T09:42:12;9.00;99.90
32640;DHT22;19049;52.524;11.468;2023-11-21T09:45:05;9.00;99.90
32640;DHT22;19049;52.524;11.468;2023-11-21T09:47:38;9.00;99.90
32640;DHT22;19049;52.524;11.468;2023-11-21T09:50:05;9.00;99.90
32640;DHT22;19049;52.524;11.468;2023-11-21T09:52:49;8.90;99.90
32640;DHT22;19049;52.524;11.468;2023-11-21T09:55:19;8.90;99.90
32640;DHT22;19049;52.524;11.468;2023-11-21T09:57:47;8.90;99.90
32640;DHT22;19049;52.524;11.468;2023-11-21T10:00:15;8.90;99.90
32640;DHT22;19049;52.524;11.468;2023-11-21T10:02:43;8.90;99.90
32640;DHT22;19049;52.524;11.468;2023-11-21T10:05:09;8.90;99.90
32640;DHT22;19049;52.524;11.468;2023-11-21T10:07:39;9.00;99.90
32640;DHT22;19049;52.524;11.468;2023-11-21T10:10:07;9.00;99.90
32640;DHT22;19049;52.524;11.468;2023-11-21T10:12:35;9.10;99.90
32640;DHT22;19049;52.524;11.468;2023-11-21T10:15:02;9.20;99.90
32640;DHT22;19049;52.524;11.468;2023-11-21T10:17:31;9.20;99.90
32640;DHT22;19049;52.524;11.468;2023-11-21T10:20:03;9.20;99.90
32640;DHT22;19049;52.524;11.468;2023-11-21T10:22:32;9.30;99.90
32640;DHT22;19049;52.524;11.468;2023-11-21T10:24:59;9.30;99.90
32640;DHT22;19049;52.524;11.468;2023-11-21T10:27:27;9.40;99.90
32640;DHT22;19049;52.524;11.468;2023-11-21T10:29:52;9.40;99.90
32640;DHT22;19049;52.524;11.468;2023-11-21T10:32:18;9.30;99.90
32640;DHT22;19049;52.524;11.468;2023-11-21T10:34:55;9.30;99.90
32640;DHT22;19049;52.524;11.468;2023-11-21T10:37:21;9.20;99.90
32640;DHT22;19049;52.524;11.468;2023-11-21T10:39:47;9.20;99.90
32640;DHT22;19049;52.524;11.468;2023-11-21T10:42:12;9.20;99.90
32640;DHT22;19049;52.524;11.468;2023-11-21T10:44:38;9.10;99.90
32640;DHT22;19049;52.524;11.468;2023-11-21T10:47:03;9.10;99.90
32640;DHT22;19049;52.524;11.468;2023-11-21T10:49:30;9.10;99.90
32640;DHT22;19049;52.524;11.468;2023-11-21T10:51:56;9.10;99.90
32640;DHT22;19049;52.524;11.468;2023-11-21T10:54:24;9.00;99.90
32640;DHT22;19049;52.524;11.468;2023-11-21T10:56:56;9.10;99.90
32640;DHT22;19049;52.524;11.468;2023-11-21T10:59:22;9.00;99.90
32640;DHT22;19049;52.524;11.468;2023-11-21T11:01:50;9.00;99.90
32640;DHT22;19049;52.524;11.468;2023-11-21T11:04:21;9.00;99.90
32640;DHT22;19049;52.524;11.468;2023-11-21T11:06:54;9.00;99.90
32640;DHT22;19049;52.524;11.468;2023-11-21T11:09:20;9.00;99.90
32640;DHT22;19049;52.524;11.468;2023-11-21T11:11:46;8.90;99.90
32640;DHT22;19049;52.524;11.468;2023-11-21T11:14:13;9.00;99.90
32640;DHT22;19049;52.524;11.468;2023-11-21T11:16:39;8.90;99.90
32640;DHT22;19049;52.524;11.468;2023-11-21T11:19:09;9.00;99.90
32640;DHT22;19049;52.524;11.468;2023-11-21T11:38:45;8.90;99.90
32640;DHT22;19049;52.524;11.468;2023-11-21T11:41:12;9.00;99.90
32640;DHT22;19049;52.524;11.468;2023-11-21T11:43:38;9.10;99.90
32640;DHT22;19049;52.524;11.468;2023-11-21T11:46:10;9.10;99.90
32640;DHT22;19049;52.524;11.468;2023-11-21T11:48:39;9.10;99.90
32640;DHT22;19049;52.524;11.468;2023-11-21T11:51:15;9.20;99.90
32640;DHT22;19049;52.524;11.468;2023-11-21T11:53:47;9.20;99.90
32640;DHT22;19049;52.524;11.468;2023-11-21T11:56:27;9.30;99.90
32640;DHT22;19049;52.524;11.468;2023-11-21T11:58:55;9.30;99.90
32640;DHT22;19049;52.524;11.468;2023-11-21T12:01:24;9.30;99.90
32640;DHT22;19049;52.524;11.468;2023-11-21T12:04:26;9.30;99.90
32640;DHT22;19049;52.524;11.468;2023-11-21T12:07:02;9.30;99.90
32640;DHT22;19049;52.524;11.468;2023-11-21T12:09:29;9.40;99.90
32640;DHT22;19049;52.524;11.468;2023-11-21T12:11:56;9.50;99.90
32640;DHT22;19049;52.524;11.468;2023-11-21T12:14:22;9.50;99.90
32640;DHT22;19049;52.524;11.468;2023-11-21T12:16:49;9.60;99.90
32640;DHT22;19049;52.524;11.468;2023-11-21T12:19:14;9.70;99.90
32640;DHT22;19049;52.524;11.468;2023-11-21T12:21:40;9.70;99.90
32640;DHT22;19049;52.524;11.468;2023-11-21T12:24:07;9.70;99.90
32640;DHT22;19049;52.524;11.468;2023-11-21T12:26:39;9.80;99.90
32640;DHT22;19049;52.524;11.468;2023-11-21T12:29:05;9.80;99.90
32640;DHT22;19049;52.524;11.468;2023-11-21T12:31:33;9.80;99.90
32640;DHT22;19049;52.524;11.468;2023-11-21T12:34:00;9.90;99.90
32640;DHT22;19049;52.524;11.468;2023-11-21T12:36:26;9.90;99.90
32640;DHT22;19049;52.524;11.468;2023-11-21T12:38:52;10.00;99.90
32640;DHT22;19049;52.524;11.468;2023-11-21T12:41:17;10.00;99.90
32640;DHT22;19049;52.524;11.468;2023-11-21T12:43:43;9.90;99.90
32640;DHT22;19049;52.524;11.468;2023-11-21T12:46:10;9.90;99.90
32640;DHT22;19049;52.524;11.468;2023-11-21T12:48:43;9.90;99.90
32640;DHT22;19049;52.524;11.468;2023-11-21T12:51:09;9.80;99.90
32640;DHT22;19049;52.524;11.468;2023-11-21T12:53:37;9.80;99.90
32640;DHT22;19049;52.524;11.468;2023-11-21T12:56:13;9.70;99.90
32640;DHT22;19049;52.524;11.468;2023-11-21T12:58:45;9.70;99.90
32640;DHT22;19049;52.524;11.468;2023-11-21T13:01:13;9.70;99.90
32640;DHT22;19049;52.524;11.468;2023-11-21T13:03:47;9.60;99.90
32640;DHT22;19049;52.524;11.468;2023-11-21T13:06:15;9.60;99.90
32640;DHT22;19049;52.524;11.468;2023-11-21T13:08:41;9.50;99.90
32640;DHT22;19049;52.524;11.468;2023-11-21T13:11:07;9.50;99.90
32640;DHT22;19049;52.524;11.468;2023-11-21T13:13:32;9.40;99.90
32640;DHT22;19049;52.524;11.468;2023-11-21T13:16:00;9.40;99.90
32640;DHT22;19049;52.524;11.468;2023-11-21T13:18:27;9.30;99.90
32640;DHT22;19049;52.524;11.468;2023-11-21T13:20:54;9.20;99.90
32640;DHT22;19049;52.524;11.468;2023-11-21T13:23:21;9.20;99.90
32640;DHT22;19049;52.524;11.468;2023-11-21T13:25:48;9.10;99.90
32640;DHT22;19049;52.524;11.468;2023-11-21T13:28:15;9.10;99.90
32640;DHT22;19049;52.524;11.468;2023-11-21T13:30:47;9.00;99.90
32640;DHT22;19049;52.524;11.468;2023-11-21T13:33:13;9.00;99.90
32640;DHT22;19049;52.524;11.468;2023-11-21T13:35:43;8.90;99.90
32640;DHT22;19049;52.524;11.468;2023-11-21T13:38:15;8.80;99.90
32640;DHT22;19049;52.524;11.468;2023-11-21T13:40:48;8.80;99.90
32640;DHT22;19049;52.524;11.468;2023-11-21T13:43:19;8.70;99.90
32640;DHT22;19049;52.524;11.468;2023-11-21T13:45:46;8.70;99.90
32640;DHT22;19049;52.524;11.468;2023-11-21T13:48:13;8.60;99.90
32640;DHT22;19049;52.524;11.468;2023-11-21T13:50:48;8.50;99.90
32640;DHT22;19049;52.524;11.468;2023-11-21T13:53:21;8.50;99.90
32640;DHT22;19049;52.524;11.468;2023-11-21T13:55:55;8.40;99.90
32640;DHT22;19049;52.524;11.468;2023-11-21T13:58:23;8.40;99.90
32640;DHT22;19049;52.524;11.468;2023-11-21T14:01:08;8.30;99.90
32640;DHT22;19049;52.524;11.468;2023-11-21T14:03:50;8.30;99.90
32640;DHT22;19049;52.524;11.468;2023-11-21T14:06:22;8.20;99.90
32640;DHT22;19049;52.524;11.468;2023-11-21T14:08:53;8.20;99.90
32640;DHT22;19049;52.524;11.468;2023-11-21T14:11:22;8.20;99.90
32640;DHT22;19049;52.524;11.468;2023-11-21T14:13:48;8.10;99.90
32640;DHT22;19049;52.524;11.468;2023-11-21T14:16:14;8.10;99.90
32640;DHT22;19049;52.524;11.468;2023-11-21T14:18:42;8.10;99.90
32640;DHT22;19049;52.524;11.468;2023-11-21T14:21:18;8.00;99.90
32640;DHT22;19049;52.524;11.468;2023-11-21T14:23:44;8.00;99.90
32640;DHT22;19049;52.524;11.468;2023-11-21T14:26:11;8.00;99.90
32640;DHT22;19049;52.524;11.468;2023-11-21T14:28:41;8.00;99.90
32640;DHT22;19049;52.524;11.468;2023-11-21T14:31:07;7.90;99.90
32640;DHT22;19049;52.524;11.468;2023-11-21T14:33:38;7.90;99.90
32640;DHT22;19049;52.524;11.468;2023-11-21T14:36:05;7.90;99.90
32640;DHT22;19049;52.524;11.468;2023-11-21T14:38:33;7.80;99.90
32640;DHT22;19049;52.524;11.468;2023-11-21T14:40:59;7.80;99.90
32640;DHT22;19049;52.524;11.468;2023-11-21T14:43:24;7.80;99.90
32640;DHT22;19049;52.524;11.468;2023-11-21T14:45:51;7.80;99.90
32640;DHT22;19049;52.524;11.468;2023-11-21T14:48:17;7.80;99.90
32640;DHT22;19049;52.524;11.468;2023-11-21T14:50:54;7.80;99.90
32640;DHT22;19049;52.524;11.468;2023-11-21T14:53:28;7.70;99.90
32640;DHT22;19049;52.524;11.468;2023-11-21T14:56:21;7.70;99.90
32640;DHT22;19049;52.524;11.468;2023-11-21T14:58:56;7.70;99.90
32640;DHT22;19049;52.524;11.468;2023-11-21T15:01:23;7.60;99.90
32640;DHT22;19049;52.524;11.468;2023-11-21T15:04:08;7.50;99.90
32640;DHT22;19049;52.524;11.468;2023-11-21T15:06:40;7.50;99.90
32640;DHT22;19049;52.524;11.468;2023-11-21T15:09:08;7.50;99.90
32640;DHT22;19049;52.524;11.468;2023-11-21T15:11:34;7.40;99.90
32640;DHT22;19049;52.524;11.468;2023-11-21T15:14:00;7.40;99.90
32640;DHT22;19049;52.524;11.468;2023-11-21T15:16:31;7.40;99.90
32640;DHT22;19049;52.524;11.468;2023-11-21T15:18:56;7.30;99.90
32640;DHT22;19049;52.524;11.468;2023-11-21T15:21:22;7.30;99.90
32640;DHT22;19049;52.524;11.468;2023-11-21T15:23:49;7.30;99.90
32640;DHT22;19049;52.524;11.468;2023-11-21T15:26:16;7.30;99.90
32640;DHT22;19049;52.524;11.468;2023-11-21T15:28:41;7.30;99.90
32640;DHT22;19049;52.524;11.468;2023-11-21T15:31:07;7.30;99.90
32640;DHT22;19049;52.524;11.468;2023-11-21T15:33:34;7.30;99.90
32640;DHT22;19049;52.524;11.468;2023-11-21T15:36:02;7.30;99.90
32640;DHT22;19049;52.524;11.468;2023-11-21T15:38:29;7.30;99.90
32640;DHT22;19049;52.524;11.468;2023-11-21T15:40:55;7.30;99.90
32640;DHT22;19049;52.524;11.468;2023-11-21T15:43:20;7.30;99.90
32640;DHT22;19049;52.524;11.468;2023-11-21T15:45:46;7.30;99.90